Time;durP1;ratioP1;P1;durP2;ratioP2;P2;SDS_P1;SDS_P2;PMS_P1;PMS_P2;Temp;Humidity;BMP_temperature;BMP_pressure;BME280_temperature;BME280_humidity;BME280_pressure;Samples;Min_cycle;Max_cycle;Signal;HPM_P1;HPM_P2
2021/09/02 00:02:00;;;;;;;5.35;3.45;;;;;;;;;;5110951;28;20027;-75
2021/09/02 00:04:26;;;;;;;4.18;3.33;;;;;;;;;;5111025;28;20024;-76
2021/09/02 00:06:52;;;;;;;5.18;3.70;;;;;;;;;;5111012;28;20024;-75
2021/09/02 00:09:18;;;;;;;5.70;3.83;;;;;;;;;;5110818;28;20378;-74
2021/09/02 00:11:44;;;;;;;4.65;3.47;;;;;;;;;;5110931;28;20032;-75
2021/09/02 00:14:10;;;;;;;4.20;3.22;;;;;;;;;;5110755;28;20028;-75
2021/09/02 00:16:37;;;;;;;5.80;3.60;;;;;;;;;;5110598;28;20026;-75
2021/09/02 00:19:03;;;;;;;4.63;3.67;;;;;;;;;;5110708;28;20090;-76
2021/09/02 00:21:29;;;;;;;5.82;3.85;;;;;;;;;;5110584;28;20494;-74
2021/09/02 00:23:55;;;;;;;4.47;3.40;;;;;;;;;;5110611;28;20111;-74
2021/09/02 00:26:22;;;;;;;5.40;3.83;;;;;;;;;;5110447;28;20051;-74
2021/09/02 00:28:48;;;;;;;4.80;3.90;;;;;;;;;;5110362;28;20049;-73
2021/09/02 00:31:14;;;;;;;6.75;3.67;;;;;;;;;;5110358;28;20036;-73
2021/09/02 00:33:40;;;;;;;7.18;4.15;;;;;;;;;;5110312;28;20016;-74
2021/09/02 00:36:06;;;;;;;5.20;3.22;;;;;;;;;;5109018;28;20482;-73
2021/09/02 00:38:33;;;;;;;4.32;3.50;;;;;;;;;;5109844;28;20064;-73
2021/09/02 00:41:00;;;;;;;4.63;3.55;;;;;;;;;;5110170;28;20020;-74
2021/09/02 00:43:31;;;;;;;4.72;3.35;;;;;;;;;;5110029;28;20103;-74
2021/09/02 00:45:57;;;;;;;4.82;4.05;;;;;;;;;;5110171;28;20103;-74
2021/09/02 00:48:23;;;;;;;5.68;3.40;;;;;;;;;;5109981;28;20081;-73
2021/09/02 00:50:49;;;;;;;4.63;3.58;;;;;;;;;;5099116;28;20035;-74
2021/09/02 00:53:16;;;;;;;11.70;8.38;;;;;;;;;;5096408;28;20034;-73
2021/09/02 00:55:42;;;;;;;4.80;4.10;;;;;;;;;;5096344;28;20133;-73
2021/09/02 00:58:08;;;;;;;6.70;3.67;;;;;;;;;;5096139;28;20067;-73
2021/09/02 01:00:34;;;;;;;5.40;3.63;;;;;;;;;;5096269;28;20081;-74
2021/09/02 01:03:00;;;;;;;6.00;3.72;;;;;;;;;;5096155;28;20092;-73
2021/09/02 01:05:26;;;;;;;5.15;3.50;;;;;;;;;;5096317;28;20081;-74
2021/09/02 01:07:53;;;;;;;6.22;3.17;;;;;;;;;;5096053;28;20378;-72
2021/09/02 01:10:19;;;;;;;5.65;3.78;;;;;;;;;;5096062;28;20028;-73
2021/09/02 01:12:47;;;;;;;5.28;3.05;;;;;;;;;;5095951;28;20034;-73
2021/09/02 01:15:15;;;;;;;4.65;3.63;;;;;;;;;;5096105;28;20024;-73
2021/09/02 01:17:42;;;;;;;4.35;3.50;;;;;;;;;;5096101;28;20024;-74
2021/09/02 01:20:09;;;;;;;5.70;3.65;;;;;;;;;;5094606;28;20440;-73
2021/09/02 01:22:36;;;;;;;5.00;3.95;;;;;;;;;;5095682;28;20035;-73
2021/09/02 01:25:06;;;;;;;4.10;3.17;;;;;;;;;;5095768;28;20077;-73
2021/09/02 01:27:32;;;;;;;5.20;3.50;;;;;;;;;;5095893;28;20073;-73
2021/09/02 01:30:03;;;;;;;6.05;3.20;;;;;;;;;;5095748;28;20103;-73
2021/09/02 01:32:36;;;;;;;6.18;3.42;;;;;;;;;;5095614;28;20025;-73
2021/09/02 01:35:03;;;;;;;5.05;3.47;;;;;;;;;;5095626;28;20028;-73
2021/09/02 01:37:43;;;;;;;4.13;3.72;;;;;;;;;;5095205;28;20128;-73
2021/09/02 01:40:12;;;;;;;4.88;3.25;;;;;;;;;;5095384;28;20047;-73
2021/09/02 01:42:38;;;;;;;4.40;3.22;;;;;;;;;;5095657;28;20032;-73
2021/09/02 01:45:05;;;;;;;5.50;2.92;;;;;;;;;;5095433;28;20032;-73
2021/09/02 01:47:31;;;;;;;5.15;3.40;;;;;;;;;;5095311;28;20020;-73
2021/09/02 01:50:04;;;;;;;6.68;3.65;;;;;;;;;;5095875;28;20107;-74
2021/09/02 01:52:31;;;;;;;5.28;3.88;;;;;;;;;;5095241;28;20039;-74
2021/09/02 01:54:57;;;;;;;6.32;3.58;;;;;;;;;;5095355;28;20061;-73
2021/09/02 01:57:23;;;;;;;5.28;3.20;;;;;;;;;;5095157;28;20024;-73
2021/09/02 01:59:49;;;;;;;4.95;3.08;;;;;;;;;;5095115;28;20054;-74
2021/09/02 02:02:15;;;;;;;3.85;3.10;;;;;;;;;;5094047;28;20028;-73
2021/09/02 02:04:41;;;;;;;4.90;3.80;;;;;;;;;;5094970;28;20024;-73
2021/09/02 02:07:07;;;;;;;4.97;3.15;;;;;;;;;;5094959;28;20035;-73
2021/09/02 02:09:33;;;;;;;5.38;3.40;;;;;;;;;;5093619;28;20035;-73
2021/09/02 02:11:59;;;;;;;5.35;3.55;;;;;;;;;;5094885;28;20028;-73
2021/09/02 02:14:26;;;;;;;4.88;3.50;;;;;;;;;;5094756;28;20154;-73
2021/09/02 02:16:52;;;;;;;5.63;3.70;;;;;;;;;;5094851;28;20235;-74
2021/09/02 02:19:18;;;;;;;5.15;3.42;;;;;;;;;;5094596;28;20032;-73
2021/09/02 02:21:44;;;;;;;3.75;2.88;;;;;;;;;;5094690;28;20032;-73
2021/09/02 02:24:10;;;;;;;5.13;3.72;;;;;;;;;;5094632;28;20150;-74
2021/09/02 02:26:37;;;;;;;4.90;3.90;;;;;;;;;;5094748;28;20449;-74
2021/09/02 02:29:03;;;;;;;6.18;3.80;;;;;;;;;;5094596;28;20038;-73
2021/09/02 02:31:29;;;;;;;5.10;3.65;;;;;;;;;;5094592;28;20036;-73
2021/09/02 02:33:56;;;;;;;4.30;3.22;;;;;;;;;;5094765;28;20028;-73
2021/09/02 02:36:22;;;;;;;5.50;3.70;;;;;;;;;;5094405;28;20413;-74
2021/09/02 02:38:48;;;;;;;4.43;3.67;;;;;;;;;;5094038;28;20060;-74
2021/09/02 02:41:14;;;;;;;3.90;3.50;;;;;;;;;;5094347;28;20085;-74
2021/09/02 02:43:40;;;;;;;5.13;3.72;;;;;;;;;;5094231;28;20020;-74
2021/09/02 02:46:06;;;;;;;5.47;4.03;;;;;;;;;;5094227;28;20025;-73
2021/09/02 02:48:33;;;;;;;5.25;3.53;;;;;;;;;;5094152;28;20398;-74
2021/09/02 02:50:59;;;;;;;5.70;4.13;;;;;;;;;;5093952;28;20081;-74
2021/09/02 02:53:25;;;;;;;6.07;4.32;;;;;;;;;;5094189;28;20031;-74
2021/09/02 02:55:51;;;;;;;4.05;3.63;;;;;;;;;;5094194;28;20048;-74
2021/09/02 02:58:17;;;;;;;5.28;3.70;;;;;;;;;;5093902;28;20034;-74
2021/09/02 03:00:43;;;;;;;5.07;3.92;;;;;;;;;;5093966;28;20035;-74
2021/09/02 03:03:09;;;;;;;5.15;3.63;;;;;;;;;;5093876;28;20032;-75
2021/09/02 03:05:35;;;;;;;5.45;4.05;;;;;;;;;;5092695;28;20071;-74
2021/09/02 03:08:03;;;;;;;5.15;3.90;;;;;;;;;;5094053;28;20020;-73
2021/09/02 03:10:29;;;;;;;4.60;3.53;;;;;;;;;;5094121;28;20031;-74
2021/09/02 03:12:55;;;;;;;8.43;4.15;;;;;;;;;;5093633;28;20024;-73
2021/09/02 03:15:21;;;;;;;5.00;4.45;;;;;;;;;;5093756;28;20051;-74
2021/09/02 03:17:48;;;;;;;7.03;4.38;;;;;;;;;;5093566;28;20389;-73
2021/09/02 03:20:14;;;;;;;4.90;4.15;;;;;;;;;;5093965;28;20030;-74
2021/09/02 03:22:40;;;;;;;5.38;3.65;;;;;;;;;;5092313;28;20073;-74
2021/09/02 03:25:06;;;;;;;4.18;3.72;;;;;;;;;;5093678;28;20020;-73
2021/09/02 03:27:33;;;;;;;5.85;4.43;;;;;;;;;;5093697;28;20024;-72
2021/09/02 03:29:59;;;;;;;5.75;3.95;;;;;;;;;;5093574;28;20027;-74
2021/09/02 03:32:25;;;;;;;5.53;4.35;;;;;;;;;;5093499;28;20421;-74
2021/09/02 03:34:51;;;;;;;5.47;4.05;;;;;;;;;;5093571;28;20020;-74
2021/09/02 03:37:17;;;;;;;5.43;3.58;;;;;;;;;;5093577;28;20481;-74
2021/09/02 03:39:43;;;;;;;4.57;3.95;;;;;;;;;;5093413;28;20138;-74
2021/09/02 03:42:09;;;;;;;6.57;4.70;;;;;;;;;;5093463;28;20028;-74
2021/09/02 03:44:35;;;;;;;5.97;4.28;;;;;;;;;;5093812;28;20073;-73
2021/09/02 03:47:01;;;;;;;5.25;4.10;;;;;;;;;;5092000;28;20391;-74
2021/09/02 03:49:27;;;;;;;6.63;4.35;;;;;;;;;;5093454;28;20479;-74
2021/09/02 03:51:54;;;;;;;8.18;4.20;;;;;;;;;;5093426;28;20482;-74
2021/09/02 03:54:20;;;;;;;5.05;3.90;;;;;;;;;;5093523;28;20049;-74
2021/09/02 03:56:46;;;;;;;7.05;4.00;;;;;;;;;;5093457;28;20085;-74
2021/09/02 03:59:12;;;;;;;10.95;5.40;;;;;;;;;;5093250;28;20063;-74
2021/09/02 04:01:38;;;;;;;4.95;4.07;;;;;;;;;;5093365;28;20031;-73
2021/09/02 04:04:04;;;;;;;6.43;3.70;;;;;;;;;;5093204;28;20413;-73
2021/09/02 04:06:30;;;;;;;8.07;4.32;;;;;;;;;;5093142;28;20024;-73
2021/09/02 04:08:56;;;;;;;4.70;3.83;;;;;;;;;;5093168;28;20081;-73
2021/09/02 04:11:22;;;;;;;5.30;3.85;;;;;;;;;;5092930;28;20036;-74
2021/09/02 04:13:48;;;;;;;8.80;5.85;;;;;;;;;;5093363;28;20096;-73
2021/09/02 04:16:15;;;;;;;4.90;4.40;;;;;;;;;;5093130;28;20024;-72
2021/09/02 04:18:41;;;;;;;6.22;4.05;;;;;;;;;;5093165;28;20222;-73
2021/09/02 04:21:07;;;;;;;6.55;3.47;;;;;;;;;;5093180;28;20038;-74
2021/09/02 04:23:34;;;;;;;5.68;3.72;;;;;;;;;;5093238;28;20051;-74
2021/09/02 04:26:01;;;;;;;7.30;3.85;;;;;;;;;;5095678;28;20100;-74
2021/09/02 04:28:27;;;;;;;5.30;4.18;;;;;;;;;;5096654;28;20028;-74
2021/09/02 04:30:53;;;;;;;5.68;3.50;;;;;;;;;;5095721;28;20471;-74
2021/09/02 04:33:19;;;;;;;6.00;4.40;;;;;;;;;;5096528;28;20068;-74
2021/09/02 04:35:46;;;;;;;6.85;4.25;;;;;;;;;;5096327;28;20097;-75
2021/09/02 04:38:12;;;;;;;4.93;3.67;;;;;;;;;;5095830;28;20360;-75
2021/09/02 04:40:38;;;;;;;5.47;3.65;;;;;;;;;;5096068;28;20020;-76
2021/09/02 04:43:05;;;;;;;5.80;3.45;;;;;;;;;;5094445;28;20024;-76
2021/09/02 04:45:31;;;;;;;3.75;3.08;;;;;;;;;;5094600;28;20038;-75
2021/09/02 04:47:57;;;;;;;5.63;3.95;;;;;;;;;;5094531;28;20110;-76
2021/09/02 04:50:24;;;;;;;4.38;3.83;;;;;;;;;;5095778;28;20535;-76
2021/09/02 04:52:50;;;;;;;4.53;3.75;;;;;;;;;;5095905;28;20471;-74
2021/09/02 04:55:16;;;;;;;6.22;3.85;;;;;;;;;;5095998;28;20027;-75
2021/09/02 04:57:42;;;;;;;6.43;4.63;;;;;;;;;;5096291;28;20056;-75
2021/09/02 05:00:09;;;;;;;7.55;4.15;;;;;;;;;;5096197;28;20058;-74
2021/09/02 05:02:35;;;;;;;6.35;4.00;;;;;;;;;;5096153;28;20023;-77
2021/09/02 05:05:02;;;;;;;15.57;10.88;;;;;;;;;;5096120;28;20035;-76
2021/09/02 05:07:28;;;;;;;6.10;4.28;;;;;;;;;;5096206;28;20051;-75
2021/09/02 05:09:54;;;;;;;5.60;4.68;;;;;;;;;;5096570;28;20150;-76
2021/09/02 05:12:20;;;;;;;4.47;3.20;;;;;;;;;;5095973;28;20024;-74
2021/09/02 05:14:46;;;;;;;5.05;3.50;;;;;;;;;;5095970;28;20027;-75
2021/09/02 05:17:13;;;;;;;5.63;3.67;;;;;;;;;;5096092;28;20486;-75
2021/09/02 05:19:39;;;;;;;5.13;3.95;;;;;;;;;;5095213;28;20039;-76
2021/09/02 05:22:05;;;;;;;4.20;3.60;;;;;;;;;;5093138;28;20436;-76
2021/09/02 05:24:31;;;;;;;4.50;3.72;;;;;;;;;;5092957;28;20113;-75
2021/09/02 05:26:57;;;;;;;10.38;7.88;;;;;;;;;;5094214;28;20106;-76
2021/09/02 05:29:23;;;;;;;5.63;3.85;;;;;;;;;;5094408;28;20024;-75
2021/09/02 05:32:15;;;;;;;8.15;4.00;;;;;;;;;;5093867;28;20032;-76
2021/09/02 05:34:41;;;;;;;3.95;3.20;;;;;;;;;;5083212;28;20113;-76
2021/09/02 05:37:07;;;;;;;6.25;3.35;;;;;;;;;;5078133;28;20068;-74
2021/09/02 05:39:33;;;;;;;5.18;3.55;;;;;;;;;;5080876;28;20057;-72
2021/09/02 05:42:00;;;;;;;5.00;3.35;;;;;;;;;;5073389;28;20475;-75
2021/09/02 05:44:26;;;;;;;6.82;4.05;;;;;;;;;;5082398;28;20023;-73
2021/09/02 05:46:52;;;;;;;7.22;3.88;;;;;;;;;;5092831;28;20070;-76
2021/09/02 05:49:18;;;;;;;6.25;5.20;;;;;;;;;;5093177;28;20028;-76
2021/09/02 05:51:44;;;;;;;4.25;3.65;;;;;;;;;;5092595;28;20036;-76
2021/09/02 05:54:10;;;;;;;5.07;3.45;;;;;;;;;;5093223;28;20032;-78
2021/09/02 05:56:37;;;;;;;7.55;5.85;;;;;;;;;;5093238;28;20509;-74
2021/09/02 05:59:03;;;;;;;6.22;3.70;;;;;;;;;;5093051;28;20043;-75
2021/09/02 06:01:29;;;;;;;5.30;4.03;;;;;;;;;;5092572;28;20019;-75
2021/09/02 06:03:55;;;;;;;4.88;3.50;;;;;;;;;;5092830;28;20356;-77
2021/09/02 06:06:21;;;;;;;6.10;3.22;;;;;;;;;;5092352;28;20102;-75
2021/09/02 06:08:47;;;;;;;5.50;3.58;;;;;;;;;;5092959;28;20080;-76
2021/09/02 06:11:14;;;;;;;5.43;3.47;;;;;;;;;;5092992;28;20024;-75
2021/09/02 06:13:40;;;;;;;5.30;3.33;;;;;;;;;;5093210;28;20040;-75
2021/09/02 06:16:06;;;;;;;4.38;3.30;;;;;;;;;;5092597;28;20145;-74
2021/09/02 06:18:32;;;;;;;3.65;3.17;;;;;;;;;;5091744;28;20118;-76
2021/09/02 06:20:58;;;;;;;5.53;3.72;;;;;;;;;;5092793;28;20035;-77
2021/09/02 06:23:24;;;;;;;5.22;2.80;;;;;;;;;;5092393;28;20051;-77
2021/09/02 06:25:50;;;;;;;5.30;3.15;;;;;;;;;;5092315;28;20042;-78
2021/09/02 06:28:16;;;;;;;5.68;3.25;;;;;;;;;;5092609;28;20038;-79
2021/09/02 06:30:43;;;;;;;8.23;4.85;;;;;;;;;;5092434;28;20024;-75
2021/09/02 06:33:09;;;;;;;5.05;2.90;;;;;;;;;;5092800;28;20052;-75
2021/09/02 06:35:35;;;;;;;4.25;3.83;;;;;;;;;;5092495;28;20028;-79
2021/09/02 06:38:01;;;;;;;4.03;2.75;;;;;;;;;;5092018;28;20467;-76
2021/09/02 06:40:27;;;;;;;5.85;3.13;;;;;;;;;;5092241;28;20516;-76
2021/09/02 06:42:53;;;;;;;9.13;5.50;;;;;;;;;;5092528;28;20025;-76
2021/09/02 06:45:19;;;;;;;7.13;4.22;;;;;;;;;;5092777;28;20459;-76
2021/09/02 06:47:45;;;;;;;4.85;2.80;;;;;;;;;;5091901;28;20035;-75
2021/09/02 06:50:12;;;;;;;7.65;3.10;;;;;;;;;;5092423;28;20444;-76
2021/09/02 06:52:39;;;;;;;9.00;3.17;;;;;;;;;;5092026;28;20040;-79
2021/09/02 06:55:08;;;;;;;6.97;3.70;;;;;;;;;;5091980;28;20095;-77
2021/09/02 06:57:35;;;;;;;4.03;3.22;;;;;;;;;;5092220;28;20103;-78
2021/09/02 07:00:01;;;;;;;6.72;3.38;;;;;;;;;;5091331;28;20496;-77
2021/09/02 07:02:27;;;;;;;5.18;2.85;;;;;;;;;;5091881;28;20103;-76
2021/09/02 07:04:54;;;;;;;4.63;2.83;;;;;;;;;;5092195;28;20386;-76
2021/09/02 07:07:20;;;;;;;4.40;3.10;;;;;;;;;;5092254;28;20031;-77
2021/09/02 07:09:46;;;;;;;4.72;2.75;;;;;;;;;;5091624;28;20391;-79
2021/09/02 07:12:12;;;;;;;4.00;3.58;;;;;;;;;;5092145;28;20495;-76
2021/09/02 07:14:38;;;;;;;5.63;3.00;;;;;;;;;;5091958;28;20024;-78
2021/09/02 07:17:05;;;;;;;3.75;2.80;;;;;;;;;;5092126;28;20028;-76
2021/09/02 07:19:31;;;;;;;6.15;3.42;;;;;;;;;;5090669;28;20028;-75
2021/09/02 07:21:57;;;;;;;6.07;3.45;;;;;;;;;;5091906;28;20028;-75
2021/09/02 07:24:23;;;;;;;6.25;3.22;;;;;;;;;;5091745;28;20023;-76
2021/09/02 07:26:50;;;;;;;6.30;2.80;;;;;;;;;;5091558;28;20039;-76
2021/09/02 07:29:16;;;;;;;3.70;3.13;;;;;;;;;;5092118;28;20020;-78
2021/09/02 07:31:42;;;;;;;4.95;2.92;;;;;;;;;;5091433;28;20080;-76
2021/09/02 07:34:08;;;;;;;8.05;4.38;;;;;;;;;;5091721;28;20024;-75
2021/09/02 07:36:34;;;;;;;5.03;2.75;;;;;;;;;;5091207;28;20106;-76
2021/09/02 07:39:01;;;;;;;5.22;3.53;;;;;;;;;;5082848;28;20060;-76
2021/09/02 07:41:27;;;;;;;8.00;3.72;;;;;;;;;;5071419;28;20039;-76
2021/09/02 07:43:53;;;;;;;7.85;3.75;;;;;;;;;;5070742;28;20043;-75
2021/09/02 07:46:19;;;;;;;3.88;3.50;;;;;;;;;;5085955;28;20423;-74
2021/09/02 07:48:46;;;;;;;4.85;3.00;;;;;;;;;;5091434;28;20027;-77
2021/09/02 07:51:13;;;;;;;5.72;3.90;;;;;;;;;;5076461;28;20048;-75
2021/09/02 07:53:39;;;;;;;5.32;3.60;;;;;;;;;;5071379;28;20065;-77
2021/09/02 07:56:05;;;;;;;7.55;3.60;;;;;;;;;;5082926;28;20032;-76
2021/09/02 07:58:31;;;;;;;4.50;3.70;;;;;;;;;;5091790;28;20387;-75
2021/09/02 08:00:57;;;;;;;6.25;3.70;;;;;;;;;;5093903;28;20171;-76
2021/09/02 08:03:26;;;;;;;7.30;3.60;;;;;;;;;;5083814;28;20036;-77
2021/09/02 08:05:52;;;;;;;8.40;4.25;;;;;;;;;;5075351;28;20054;-76
2021/09/02 08:08:19;;;;;;;4.55;3.78;;;;;;;;;;5075329;28;20214;-76
2021/09/02 08:10:46;;;;;;;4.28;3.55;;;;;;;;;;5074729;28;20035;-75
2021/09/02 08:13:12;;;;;;;4.90;3.63;;;;;;;;;;5074217;28;20528;-76
2021/09/02 08:15:39;;;;;;;6.88;4.18;;;;;;;;;;5074969;28;20029;-78
2021/09/02 08:18:05;;;;;;;6.72;3.95;;;;;;;;;;5074670;28;20024;-76
2021/09/02 08:20:32;;;;;;;5.40;3.78;;;;;;;;;;5075165;28;20032;-74
2021/09/02 08:22:58;;;;;;;4.97;3.95;;;;;;;;;;5082261;28;20032;-78
2021/09/02 08:25:25;;;;;;;5.15;4.07;;;;;;;;;;5095293;28;20016;-75
2021/09/02 08:27:51;;;;;;;15.00;4.60;;;;;;;;;;5095054;28;20052;-75
2021/09/02 08:30:19;;;;;;;5.15;3.70;;;;;;;;;;5094785;28;20036;-74
2021/09/02 08:32:48;;;;;;;5.05;3.80;;;;;;;;;;5094827;28;20030;-74
2021/09/02 08:35:25;;;;;;;4.60;3.30;;;;;;;;;;5094749;28;20053;-74
2021/09/02 08:37:52;;;;;;;5.35;4.28;;;;;;;;;;5094331;28;20028;-76
2021/09/02 08:40:19;;;;;;;5.93;3.70;;;;;;;;;;5094551;28;20402;-76
2021/09/02 08:42:46;;;;;;;5.40;3.78;;;;;;;;;;5095000;28;20482;-76
2021/09/02 08:45:12;;;;;;;4.13;3.25;;;;;;;;;;5094237;28;20818;-76
2021/09/02 08:47:38;;;;;;;4.93;3.63;;;;;;;;;;5094669;28;20067;-76
2021/09/02 08:50:05;;;;;;;4.93;3.78;;;;;;;;;;5094531;28;20463;-75
2021/09/02 08:52:34;;;;;;;7.30;3.63;;;;;;;;;;5094505;28;20471;-78
2021/09/02 08:55:00;;;;;;;10.45;4.20;;;;;;;;;;5094273;28;20036;-77
2021/09/02 08:57:26;;;;;;;3.65;3.08;;;;;;;;;;5091142;28;20039;-76
2021/09/02 08:59:52;;;;;;;6.13;3.20;;;;;;;;;;5075883;28;20518;-76
2021/09/02 09:02:21;;;;;;;6.47;3.92;;;;;;;;;;5076362;28;20467;-76
2021/09/02 09:04:59;;;;;;;4.57;3.10;;;;;;;;;;5094442;28;20036;-79
2021/09/02 09:07:47;;;;;;;5.25;3.10;;;;;;;;;;5082528;28;20107;-78
2021/09/02 09:10:23;;;;;;;4.38;3.50;;;;;;;;;;5073144;28;20023;-76
2021/09/02 09:12:56;;;;;;;4.47;3.20;;;;;;;;;;5074124;28;20044;-77
2021/09/02 09:15:26;;;;;;;3.95;3.58;;;;;;;;;;5073967;28;20028;-76
2021/09/02 09:17:53;;;;;;;6.75;4.13;;;;;;;;;;5072686;28;20029;-81
2021/09/02 09:20:20;;;;;;;6.03;3.50;;;;;;;;;;5084710;28;20032;-76
2021/09/02 09:22:57;;;;;;;5.25;3.42;;;;;;;;;;5093754;28;20024;-76
2021/09/02 09:25:23;;;;;;;4.55;3.45;;;;;;;;;;5094013;28;20115;-78
2021/09/02 09:27:50;;;;;;;4.68;3.78;;;;;;;;;;5094012;28;20451;-77
2021/09/02 09:30:20;;;;;;;4.75;4.18;;;;;;;;;;5093831;28;20081;-75
2021/09/02 09:33:04;;;;;;;4.22;3.60;;;;;;;;;;5094461;28;20478;-79
2021/09/02 09:35:32;;;;;;;4.13;3.67;;;;;;;;;;5094472;28;20073;-78
2021/09/02 09:38:11;;;;;;;3.58;3.10;;;;;;;;;;5094106;28;20111;-79
2021/09/02 09:40:39;;;;;;;6.47;4.10;;;;;;;;;;5094104;28;20039;-79
2021/09/02 09:43:08;;;;;;;6.45;4.53;;;;;;;;;;5093443;28;20028;-81
2021/09/02 09:45:40;;;;;;;6.63;4.32;;;;;;;;;;5080601;28;20052;-79
2021/09/02 09:48:25;;;;;;;6.53;4.93;;;;;;;;;;5079136;28;20551;-77
2021/09/02 09:51:09;;;;;;;6.32;4.93;;;;;;;;;;5093794;28;20115;-80
2021/09/02 09:53:37;;;;;;;5.32;4.80;;;;;;;;;;5092545;28;20391;-77
2021/09/02 09:56:04;;;;;;;4.35;3.95;;;;;;;;;;5093582;28;20433;-78
2021/09/02 09:58:30;;;;;;;5.53;4.63;;;;;;;;;;5093437;28;20524;-78
2021/09/02 10:00:59;;;;;;;6.20;4.60;;;;;;;;;;5094018;28;20035;-77
2021/09/02 10:03:25;;;;;;;7.25;4.97;;;;;;;;;;5093526;28;20112;-77
2021/09/02 10:05:52;;;;;;;5.47;4.97;;;;;;;;;;5093351;28;20047;-75
2021/09/02 10:08:20;;;;;;;5.60;4.60;;;;;;;;;;5093606;28;20073;-76
2021/09/02 10:10:50;;;;;;;5.57;4.93;;;;;;;;;;5093512;28;20039;-77
2021/09/02 10:13:16;;;;;;;15.77;6.03;;;;;;;;;;5093228;28;20103;-76
2021/09/02 10:15:43;;;;;;;5.32;4.82;;;;;;;;;;5093633;28;20024;-74
2021/09/02 10:18:10;;;;;;;6.85;4.88;;;;;;;;;;5093675;28;20036;-78
2021/09/02 10:20:37;;;;;;;6.10;5.32;;;;;;;;;;5093279;28;20028;-74
2021/09/02 10:23:05;;;;;;;6.35;4.95;;;;;;;;;;5085656;28;20108;-76
2021/09/02 10:25:34;;;;;;;6.00;5.40;;;;;;;;;;5088207;28;20032;-76
2021/09/02 10:28:01;;;;;;;6.70;5.70;;;;;;;;;;5092891;28;20016;-76
2021/09/02 10:30:28;;;;;;;6.85;5.63;;;;;;;;;;5081059;28;20111;-75
2021/09/02 10:32:55;;;;;;;5.93;5.43;;;;;;;;;;5073369;28;20108;-77
2021/09/02 10:35:21;;;;;;;6.45;5.57;;;;;;;;;;5072741;28;20025;-78
2021/09/02 10:37:49;;;;;;;6.55;5.95;;;;;;;;;;5072210;28;20037;-76
2021/09/02 10:40:18;;;;;;;6.40;5.75;;;;;;;;;;5073009;28;20036;-76
2021/09/02 10:42:44;;;;;;;9.18;5.97;;;;;;;;;;5077982;28;20162;-77
2021/09/02 10:45:29;;;;;;;6.90;5.88;;;;;;;;;;5087290;28;20028;-77
2021/09/02 10:47:57;;;;;;;8.50;6.25;;;;;;;;;;5091640;28;20032;-76
2021/09/02 10:50:52;;;;;;;5.50;4.82;;;;;;;;;;5091703;28;20017;-77
2021/09/02 10:53:19;;;;;;;8.40;4.97;;;;;;;;;;5090832;28;20049;-78
2021/09/02 10:55:48;;;;;;;6.50;5.15;;;;;;;;;;5091513;28;20032;-76
2021/09/02 10:58:34;;;;;;;5.93;4.30;;;;;;;;;;5092174;28;20523;-76
2021/09/02 11:01:20;;;;;;;7.63;4.38;;;;;;;;;;5073274;28;20565;-76
2021/09/02 11:03:46;;;;;;;7.32;4.50;;;;;;;;;;5088749;28;20390;-76
2021/09/02 11:06:13;;;;;;;5.10;4.53;;;;;;;;;;5091745;28;20102;-79
2021/09/02 11:08:40;;;;;;;5.28;4.65;;;;;;;;;;5088225;28;20490;-74
2021/09/02 11:11:10;;;;;;;7.00;5.00;;;;;;;;;;5089289;28;20024;-76
2021/09/02 11:13:36;;;;;;;7.15;4.80;;;;;;;;;;5090581;28;20032;-79
2021/09/02 11:16:08;;;;;;;5.97;5.38;;;;;;;;;;5092436;28;20028;-77
2021/09/02 11:18:45;;;;;;;5.97;4.75;;;;;;;;;;5088960;28;20048;-78
2021/09/02 11:21:30;;;;;;;5.47;4.63;;;;;;;;;;5080268;28;20024;-82
2021/09/02 11:23:57;;;;;;;6.30;4.93;;;;;;;;;;5087669;28;20031;-78
2021/09/02 11:26:36;;;;;;;4.70;4.30;;;;;;;;;;5078318;28;20020;-77
2021/09/02 11:29:03;;;;;;;5.10;4.07;;;;;;;;;;5083543;28;20386;-80
2021/09/02 11:31:30;;;;;;;4.05;3.65;;;;;;;;;;5083946;28;20032;-75
2021/09/02 11:33:56;;;;;;;4.05;3.58;;;;;;;;;;5085660;28;20117;-77
2021/09/02 11:36:23;;;;;;;5.63;3.88;;;;;;;;;;5088748;28;20144;-77
2021/09/02 11:38:50;;;;;;;4.63;4.22;;;;;;;;;;5071362;28;20064;-76
2021/09/02 11:41:22;;;;;;;8.48;4.63;;;;;;;;;;5071939;28;20078;-77
2021/09/02 11:43:49;;;;;;;6.38;4.70;;;;;;;;;;5071920;28;20064;-77
2021/09/02 11:46:16;;;;;;;4.55;4.10;;;;;;;;;;5072062;28;20024;-78
2021/09/02 11:48:45;;;;;;;5.30;4.45;;;;;;;;;;5091177;28;20472;-77
2021/09/02 11:51:11;;;;;;;7.53;4.68;;;;;;;;;;5092262;28;20431;-76
2021/09/02 11:53:37;;;;;;;5.63;4.70;;;;;;;;;;5091924;28;20028;-77
2021/09/02 11:56:16;;;;;;;8.48;5.10;;;;;;;;;;5092263;28;20024;-78
2021/09/02 11:58:42;;;;;;;5.35;4.53;;;;;;;;;;5091638;28;20040;-77
2021/09/02 12:01:08;;;;;;;7.82;5.10;;;;;;;;;;5085027;28;20040;-77
2021/09/02 12:03:35;;;;;;;5.63;5.13;;;;;;;;;;5080101;28;20024;-77
2021/09/02 12:06:01;;;;;;;5.55;4.82;;;;;;;;;;5071506;28;20055;-79
2021/09/02 12:08:28;;;;;;;7.15;4.93;;;;;;;;;;5071363;28;20331;-82
2021/09/02 12:10:54;;;;;;;5.88;4.65;;;;;;;;;;5072174;28;20031;-78
2021/09/02 12:13:21;;;;;;;6.53;4.15;;;;;;;;;;5078131;28;20024;-81
2021/09/02 12:16:00;;;;;;;4.75;3.92;;;;;;;;;;5080504;28;20028;-74
2021/09/02 12:18:29;;;;;;;4.72;3.78;;;;;;;;;;5084768;28;20036;-80
2021/09/02 12:21:08;;;;;;;5.15;4.35;;;;;;;;;;5079630;28;20837;-77
2021/09/02 12:23:44;;;;;;;7.13;3.90;;;;;;;;;;5081811;28;20387;-77
2021/09/02 12:26:10;;;;;;;4.93;4.03;;;;;;;;;;5077335;28;20444;-78
2021/09/02 12:28:38;;;;;;;5.75;3.75;;;;;;;;;;5077834;28;20118;-78
2021/09/02 12:31:23;;;;;;;4.65;3.90;;;;;;;;;;5071644;28;20024;-77
2021/09/02 12:34:00;;;;;;;4.80;4.25;;;;;;;;;;5078755;28;20045;-78
2021/09/02 12:36:26;;;;;;;9.18;4.45;;;;;;;;;;5078473;28;20024;-77
2021/09/02 12:38:53;;;;;;;4.88;3.90;;;;;;;;;;5077712;28;20083;-79
2021/09/02 12:41:20;;;;;;;4.90;3.90;;;;;;;;;;5091551;28;20081;-75
2021/09/02 12:44:05;;;;;;;5.30;4.00;;;;;;;;;;5092055;28;20024;-76
2021/09/02 12:46:50;;;;;;;4.53;3.58;;;;;;;;;;5083619;28;20027;-76
2021/09/02 12:49:17;;;;;;;4.82;3.60;;;;;;;;;;5074918;28;20036;-77
2021/09/02 12:51:55;;;;;;;3.75;3.45;;;;;;;;;;5081549;28;20149;-75
2021/09/02 12:54:21;;;;;;;4.90;3.55;;;;;;;;;;5102833;27;20444;-75
2021/09/02 12:56:47;;;;;;;4.25;3.20;;;;;;;;;;5089023;28;20032;-77
2021/09/02 12:59:15;;;;;;;4.25;3.25;;;;;;;;;;5090164;28;20406;-77
2021/09/02 13:01:41;;;;;;;4.72;3.55;;;;;;;;;;5095051;28;21258;-77
2021/09/02 13:04:08;;;;;;;5.22;3.80;;;;;;;;;;5086053;28;20036;-77
2021/09/02 13:06:34;;;;;;;4.05;3.58;;;;;;;;;;5080531;28;20028;-76
2021/09/02 13:09:19;;;;;;;7.57;3.47;;;;;;;;;;5084171;28;20028;-76
2021/09/02 13:11:45;;;;;;;4.35;3.95;;;;;;;;;;5081123;28;20032;-75
2021/09/02 13:14:11;;;;;;;4.07;3.17;;;;;;;;;;5080031;28;20606;-76
2021/09/02 13:16:37;;;;;;;11.63;4.90;;;;;;;;;;5095205;28;20114;-78
2021/09/02 13:19:04;;;;;;;5.22;3.40;;;;;;;;;;5094770;28;20036;-77
2021/09/02 13:21:30;;;;;;;3.85;3.40;;;;;;;;;;5094806;28;20027;-77
2021/09/02 13:23:56;;;;;;;4.38;3.60;;;;;;;;;;5094200;28;20475;-76
2021/09/02 13:26:22;;;;;;;4.40;3.60;;;;;;;;;;5094483;28;20115;-77
2021/09/02 13:28:49;;;;;;;3.78;3.03;;;;;;;;;;5088605;28;20059;-76
2021/09/02 13:31:15;;;;;;;4.20;3.35;;;;;;;;;;5089355;28;20039;-78
2021/09/02 13:33:41;;;;;;;3.95;3.20;;;;;;;;;;5082353;28;20024;-77
2021/09/02 13:36:07;;;;;;;8.00;4.97;;;;;;;;;;5083090;28;20028;-75
2021/09/02 13:38:35;;;;;;;4.10;2.92;;;;;;;;;;5072856;28;20097;-75
2021/09/02 13:41:01;;;;;;;4.00;3.33;;;;;;;;;;5074030;28;20479;-75
2021/09/02 13:43:27;;;;;;;6.65;4.05;;;;;;;;;;5081694;28;20033;-76
2021/09/02 13:45:53;;;;;;;4.13;3.60;;;;;;;;;;5084202;28;20024;-76
2021/09/02 13:48:19;;;;;;;4.45;3.45;;;;;;;;;;5075176;28;20032;-76
2021/09/02 13:50:47;;;;;;;4.28;3.88;;;;;;;;;;5075109;28;20029;-77
2021/09/02 13:53:13;;;;;;;4.63;3.22;;;;;;;;;;5082914;28;20032;-76
2021/09/02 13:55:39;;;;;;;11.65;9.15;;;;;;;;;;5092626;28;20035;-77
2021/09/02 13:58:08;;;;;;;2.80;2.47;;;;;;;;;;5086311;28;20029;-77
2021/09/02 14:00:34;;;;;;;5.80;3.28;;;;;;;;;;5072928;28;20055;-76
2021/09/02 14:03:03;;;;;;;4.40;3.40;;;;;;;;;;5090176;28;20372;-77
2021/09/02 14:05:30;;;;;;;3.90;3.15;;;;;;;;;;5084283;28;20024;-75
2021/09/02 14:07:57;;;;;;;3.88;3.03;;;;;;;;;;5081297;28;20040;-77
2021/09/02 14:10:23;;;;;;;3.15;2.83;;;;;;;;;;5071247;28;20447;-76
2021/09/02 14:12:49;;;;;;;4.28;3.28;;;;;;;;;;5088364;28;20024;-77
2021/09/02 14:15:15;;;;;;;3.65;3.28;;;;;;;;;;5074522;28;20078;-76
2021/09/02 14:17:42;;;;;;;3.42;3.10;;;;;;;;;;5073139;28;20025;-77
2021/09/02 14:20:09;;;;;;;4.72;3.03;;;;;;;;;;5072912;28;20040;-76
2021/09/02 14:22:35;;;;;;;5.38;3.38;;;;;;;;;;5091505;28;20501;-76
2021/09/02 14:25:02;;;;;;;5.63;3.08;;;;;;;;;;5093268;28;20038;-76
2021/09/02 14:27:28;;;;;;;2.75;2.50;;;;;;;;;;5092771;28;20035;-75
2021/09/02 14:29:54;;;;;;;3.83;2.78;;;;;;;;;;5093309;28;20043;-78
2021/09/02 14:32:20;;;;;;;6.43;3.50;;;;;;;;;;5092631;28;20078;-76
2021/09/02 14:34:47;;;;;;;4.57;3.28;;;;;;;;;;5093150;28;20024;-78
2021/09/02 14:37:13;;;;;;;4.70;3.28;;;;;;;;;;5092814;28;20046;-77
2021/09/02 14:39:39;;;;;;;3.35;2.88;;;;;;;;;;5092590;28;20047;-79
2021/09/02 14:42:05;;;;;;;3.40;3.10;;;;;;;;;;5092861;28;20043;-77
2021/09/02 14:44:31;;;;;;;3.08;2.80;;;;;;;;;;5092720;28;20036;-76
2021/09/02 14:46:59;;;;;;;3.47;2.85;;;;;;;;;;5092683;28;20493;-79